Albion, CA

4:58 AM PST on December 26, 2014 (GMT -0800)
Comptche-Ukiah Rd | Change Station
CLOSE
Current Station
Personal Weather Station
Location: Mendocino, CA
Elevation: 500 ft
Nearby Weather Stations
Active Advisory: Frost Advisory

Elev 500 ft 39.27 °N, 123.70 °W | Updated 6 seconds ago

Clear
Clear
34.1 °F
Feels Like 34 °F
N
0.0
Wind Variable Wind from NE
Gusts 1.0 mph

Today
High -- | Low -- °F
--% Chance of Precip.
Yesterday
High -- | Low -- °F
Precip. -- in
7:32 AM 4:58 PM
Waxing Crescent, 25% visible
Pressure 30.22 in
Visibility 7.0 miles
Clouds Few 100 ft
Windchill 34 °F
Dew Point 34 °F
Humidity 98%
Rainfall 0.00 in
Snow Depth Not available.
UV 0 out of 12
Pollen 2.80 out of 12
Air Quality Not available.
Flu Activity Not available.
METAR KUKI 261156Z AUTO 00000KT 7SM FEW001 M01/M02 A3022 RMK AO2 SLP232 T10061022 10044 21006 51012

More Conditions Fewer Conditions

Pressure 30.22 in
Visibility 7.0 miles
Clouds Few 100 ft
Windchill 34 °F
Dew Point 34 °F
Humidity 98%
Rainfall 0.00 in
Snow Depth Not available.
UV 0 out of 12
Pollen 2.80 out of 12
Air Quality Not available.
Flu Activity Not available.
METAR KUKI 261156Z AUTO 00000KT 7SM FEW001 M01/M02 A3022 RMK AO2 SLP232 T10061022 10044 21006 51012

More Conditions Fewer Conditions

10-Day Weather Forecast

Almanac

Astronomy

Dec. 26, 2014 Rise Set
Actual Time
Civil Twilight
Nautical Twilight
Astronomical Twilight
Moon
Length of Visible Light
Length of Day
Tomorrow will be .
, % of the Moon is Illuminated

Today's Extremes

State Highs State Lows

Community

WunderPhotos

Upload Photos

1,780,588 photos uploaded!

WunderBlogs® & News

Nearby

Air Quality

  Air Quality AQ Index Pollutant
Not available.

Snow Depth

Station Depth Elevation

Earthquake Activity

City Distance Mag. Time & Date
Minimum magnitude displayed is 2.5.

Coastal Water Temperatures

Place Temperature

Nearby Weather Stations